Latest Weather Observations for Hervey Bay

IDQ60801

Issued at 7:02 pm EST Wednesday 18 October 2017 (issued every 30 minutes, with the page automatically refreshed every 10 minutes)

About weather observations | Map of weather stations | Latest weather observations for QLD | Other Formats
Station Details ID: 040405 Name: HERVEY BAY AIRPORT Lat: -25.32 Lon: 152.88 Height: 12.98 m
Data from the previous 72 hours. | See also: Recent months at Hervey Bay
Date/Time
EST
Temp
°C
App
Temp
°C
Dew
Point
°C
Rel
Hum
%
Delta-T
°C
Wind Press
QNH
hPa
Press
MSL
hPa
Rain since
9am
mm
Dir  Spd
km/h
Gust
km/h
Spd
kts
Gust
kts
18/07:00pm 21.9 20.4 17.7 77 2.6 ESE 22 32 12 17 1022.2 1022.1 0.2
18/06:30pm 22.2 20.5 18.2 78 2.5 ESE 24 35 13 19 1021.7 1021.6 0.2
18/06:00pm 22.2 20.1 18.0 77 2.6 ESE 26 37 14 20 1021.3 1021.2 0.2
18/05:30pm 22.1 20.3 17.9 77 2.6 ESE 24 37 13 20 1021.0 1020.9 0.2
18/05:00pm 22.2 20.6 18.4 79 2.4 ESE 24 37 13 20 1020.6 1020.5 0.2
18/04:30pm 21.8 21.2 18.8 83 1.9 ESE 20 30 11 16 1020.3 1020.2 0.2
18/04:00pm 21.6 18.2 17.8 79 2.3 ESE 32 44 17 24 1020.3 1020.2 0.2
18/03:30pm 22.2 20.7 18.6 80 2.3 ESE 24 35 13 19 1019.9 1019.8 0.2
18/03:06pm 22.1 19.5 17.7 76 2.7 ESE 28 46 15 25 1020.1 1020.0 0.2
18/03:00pm 23.3 21.1 18.6 75 3.0 ESE 28 43 15 23 1019.9 1019.8 0.2
18/02:30pm 23.4 21.2 18.7 75 3.0 ESE 28 43 15 23 1019.9 1019.8 0.2
18/02:07pm 23.6 20.6 18.7 74 3.1 ESE 32 50 17 27 1019.9 1019.8 0.2
18/02:00pm 23.6 21.1 18.9 75 3.0 ESE 30 43 16 23 1020.0 1019.9 0.2
18/01:30pm 23.5 21.5 19.2 77 2.7 ESE 28 43 15 23 1020.2 1020.1 0.2
18/01:00pm 23.2 21.1 18.9 77 2.7 ESE 28 37 15 20 1020.5 1020.4 0.0
18/12:30pm 23.2 21.6 19.2 78 2.5 ESE 26 43 14 23 1020.7 1020.6 0.0
18/12:00pm 22.7 19.6 18.5 77 2.6 ESE 32 43 17 23 1020.8 1020.7 0.0
18/11:30am 23.6 21.6 19.1 76 2.9 ESE 28 39 15 21 1020.8 1020.7 0.0
18/11:00am 23.2 20.8 19.2 78 2.5 ESE 30 41 16 22 1021.1 1021.0 0.0
18/10:30am 23.4 21.2 19.5 79 2.5 ESE 30 41 16 22 1021.1 1021.0 0.0
18/10:00am 23.2 20.5 19.6 80 2.3 ESE 33 46 18 25 1021.2 1021.1 0.0
18/09:30am 22.7 20.6 19.7 83 1.9 ESE 30 41 16 22 1021.4 1021.3 0.0
18/09:16am 22.5 20.8 19.9 85 1.7 ESE 28 46 15 25 1021.4 1021.3 0.0
18/09:00am 22.5 21.0 20.2 87 1.5 ESE 28 41 15 22 1021.3 1021.2 26.0
18/08:57am 22.4 20.8 20.1 87 1.5 ESE 28 41 15 22 1021.2 1021.1 26.0
18/08:44am 21.9 20.3 20.0 89 1.2 ESE 28 43 15 23 1021.1 1021.0 26.0
18/08:30am 21.8 20.5 19.9 89 1.2 ESE 26 37 14 20 1021.1 1021.0 26.0
18/08:24am 21.6 19.9 19.7 89 1.2 ESE 28 39 15 21 1021.0 1020.9 26.0
18/08:22am 21.6 19.9 19.7 89 1.2 ESE 28 39 15 21 1021.0 1020.9 25.8
18/08:20am 21.6 19.9 19.7 89 1.2 ESE 28 39 15 21 1020.9 1020.8 25.8
18/08:19am 21.5 19.7 19.6 89 1.2 ESE 28 39 15 21 1020.9 1020.8 25.8
18/08:03am 21.4 19.2 19.5 89 1.2 ESE 30 44 16 24 1020.8 1020.7 25.8
18/08:00am 21.7 20.4 19.8 89 1.2 ESE 26 41 14 22 1020.7 1020.6 25.8
18/07:55am 21.6 20.6 19.7 89 1.2 ESE 24 35 13 19 1020.7 1020.6 25.8
18/07:30am 21.5 20.1 19.6 89 1.2 ESE 26 39 14 21 1020.4 1020.3 25.6
18/07:28am 21.5 20.1 19.6 89 1.2 ESE 26 39 14 21 1020.3 1020.2 25.6
18/07:09am 21.8 19.3 19.7 88 1.3 ESE 32 43 17 23 1019.9 1019.8 25.6
18/07:00am 21.8 19.3 19.7 88 1.3 ESE 32 46 17 25 1019.8 1019.7 25.4
18/06:55am 21.8 19.7 19.7 88 1.3 ESE 30 43 16 23 1019.7 1019.6 25.4
18/06:48am 21.7 19.5 19.6 88 1.3 ESE 30 41 16 22 1019.7 1019.6 25.4
18/06:38am 21.8 20.4 19.7 88 1.3 ESE 26 35 14 19 1019.5 1019.4 25.4
18/06:30am 22.0 21.1 19.9 88 1.3 ESE 24 35 13 19 1019.4 1019.3 25.4
18/06:08am 21.8 20.1 19.7 88 1.3 ESE 28 46 15 25 1018.9 1018.8 25.4
18/06:00am 21.9 19.8 19.8 88 1.3 ESE 30 37 16 20 1018.9 1018.8 25.4
18/05:47am 21.8 20.1 19.9 89 1.2 ESE 28 39 15 21 1018.8 1018.7 25.4
18/05:30am 21.8 20.9 19.9 89 1.2 ESE 24 37 13 20 1018.6 1018.5 25.4
18/05:00am 21.7 20.0 19.8 89 1.2 ESE 28 43 15 23 1018.2 1018.1 25.2
18/04:52am 21.6 19.9 19.7 89 1.2 ESE 28 43 15 23 1018.1 1018.0 25.2
18/04:30am 21.6 19.9 19.7 89 1.2 ESE 28 39 15 21 1017.8 1017.7 25.2
18/04:20am 21.8 20.9 19.9 89 1.2 ESE 24 37 13 20 1017.6 1017.5 25.0
18/04:17am 21.9 21.1 20.0 89 1.2 ESE 24 37 13 20 1017.5 1017.4 25.0
18/04:05am 21.7 20.8 19.8 89 1.2 ESE 24 32 13 17 1017.5 1017.4 25.0
18/04:00am 21.7 20.8 19.8 89 1.2 ESE 24 32 13 17 1017.5 1017.4 25.0
18/03:50am 21.7 19.9 19.6 88 1.3 ESE 28 35 15 19 1017.5 1017.4 25.0
18/03:44am 21.9 20.6 19.8 88 1.3 ESE 26 35 14 19 1017.4 1017.3 25.0
18/03:30am 22.0 21.1 19.9 88 1.3 ESE 24 32 13 17 1017.2 1017.1 25.0
18/03:00am 21.7 21.1 19.8 89 1.2 SE 22 35 12 19 1017.1 1017.0 25.0
18/02:30am 21.6 20.1 19.5 88 1.3 ESE 26 37 14 20 1017.2 1017.1 25.0
18/02:00am 22.0 21.1 19.9 88 1.3 ESE 24 37 13 20 1017.4 1017.3 25.0
18/01:30am 21.8 20.9 19.9 89 1.2 ESE 24 33 13 18 1017.6 1017.5 25.0
18/01:00am 21.8 20.5 19.9 89 1.2 ESE 26 39 14 21 1017.8 1017.7 25.0
18/12:30am 21.8 21.8 20.1 90 1.1 ESE 20 30 11 16 1018.2 1018.1 25.0
18/12:18am 21.7 20.5 20.0 90 1.1 ESE 26 35 14 19 1018.3 1018.2 25.0
18/12:03am 21.7 20.9 20.0 90 1.1 ESE 24 37 13 20 1018.5 1018.4 25.0
18/12:00am 21.8 21.8 20.1 90 1.1 ESE 20 32 11 17 1018.5 1018.4 25.0
 
Date/Time
EST
Temp
°C
App
Temp
°C
Dew
Point
°C
Rel
Hum
%
Delta-T
°C
Wind Press
QNH
hPa
Press
MSL
hPa
Rain since
9am
mm
Dir  Spd
km/h
Gust
km/h
Spd
kts
Gust
kts
17/11:38pm 21.7 21.2 20.0 90 1.1 ESE 22 37 12 20 1018.7 1018.6 25.0
17/11:30pm 21.6 20.7 19.9 90 1.1 ESE 24 41 13 22 1018.7 1018.6 25.0
17/11:03pm 21.6 21.1 19.9 90 1.1 ESE 22 30 12 16 1019.0 1018.9 24.4
17/11:00pm 21.6 21.1 19.9 90 1.1 ESE 22 35 12 19 1019.1 1019.0 24.2
17/10:30pm 21.7 21.2 20.0 90 1.1 ESE 22 35 12 19 1019.1 1019.0 24.2
17/10:16pm 21.6 19.9 19.9 90 1.1 ESE 28 44 15 24 1019.1 1019.0 24.2
17/10:07pm 21.6 19.9 19.9 90 1.1 ESE 28 37 15 20 1019.0 1018.9 24.2
17/10:03pm 21.5 19.4 19.8 90 1.1 ESE 30 46 16 25 1019.0 1018.9 24.2
17/10:00pm 21.5 19.0 19.8 90 1.1 ESE 32 46 17 25 1019.0 1018.9 24.2
17/09:41pm 21.4 20.0 19.7 90 1.1 ESE 26 37 14 20 1019.2 1019.1 23.6
17/09:35pm 21.4 20.0 19.7 90 1.1 ESE 26 37 14 20 1019.1 1019.0 23.2
17/09:30pm 21.5 19.7 19.6 89 1.2 ESE 28 37 15 20 1019.1 1019.0 23.0
17/09:17pm 21.8 20.5 19.9 89 1.2 ESE 26 39 14 21 1019.0 1018.9 21.6
17/09:00pm 21.9 20.7 20.0 89 1.2 ESE 26 35 14 19 1019.1 1019.0 21.2
17/08:58pm 21.7 20.8 19.8 89 1.2 ESE 24 35 13 19 1019.0 1018.9 21.2
17/08:40pm 21.6 20.2 19.7 89 1.2 ESE 26 41 14 22 1018.9 1018.8 21.2
17/08:30pm 21.6 20.2 19.7 89 1.2 ESE 26 37 14 20 1018.8 1018.7 21.0
17/08:00pm 21.5 20.5 19.6 89 1.2 ESE 24 35 13 19 1018.6 1018.5 21.0
17/07:58pm 21.5 20.1 19.6 89 1.2 ESE 26 35 14 19 1018.6 1018.5 21.0
17/07:52pm 21.5 19.7 19.6 89 1.2 ESE 28 39 15 21 1018.5 1018.4 21.0
17/07:30pm 21.9 20.7 20.0 89 1.2 ESE 26 37 14 20 1018.3 1018.2 20.8
17/07:11pm 21.8 20.1 19.9 89 1.2 ESE 28 39 15 21 1018.3 1018.2 20.8
17/07:00pm 21.6 21.5 19.9 90 1.1 ESE 20 37 11 20 1018.0 1017.9 20.8
17/06:49pm 21.5 20.1 19.6 89 1.2 ESE 26 35 14 19 1018.1 1018.0 20.0
17/06:42pm 21.5 20.5 19.6 89 1.2 ESE 24 33 13 18 1018.1 1018.0 20.0
17/06:30pm 21.5 20.8 19.6 89 1.2 ESE 22 35 12 19 1018.0 1017.9 20.0
17/06:21pm 21.5 20.1 19.6 89 1.2 ESE 26 35 14 19 1017.9 1017.8 20.0
17/06:00pm 21.6 20.6 19.7 89 1.2 ESE 24 37 13 20 1017.6 1017.5 20.0
17/05:45pm 21.6 19.6 19.9 90 1.1 ESE 30 41 16 22 1017.3 1017.2 20.0
17/05:30pm 21.7 20.9 20.0 90 1.1 ESE 24 37 13 20 1017.1 1017.0 19.8
17/05:29pm 21.7 20.5 20.0 90 1.1 ESE 26 37 14 20 1017.1 1017.0 19.8
17/05:14pm 21.6 20.3 19.9 90 1.1 ESE 26 39 14 21 1016.7 1016.6 19.8
17/05:00pm 21.4 20.8 19.7 90 1.1 ESE 22 32 12 17 1016.6 1016.5 19.8
17/04:58pm 21.4 20.8 19.7 90 1.1 ESE 22 32 12 17 1016.5 1016.4 19.8
17/04:51pm 21.3 21.0 19.6 90 1.1 ESE 20 39 11 21 1016.3 1016.2 19.8
17/04:30pm 21.3 20.2 19.4 89 1.2 ESE 24 39 13 21 1016.2 1016.1 18.0
17/04:18pm 21.5 18.9 19.4 88 1.3 ESE 32 43 17 23 1016.1 1016.0 17.2
17/04:00pm 21.7 20.0 19.8 89 1.2 ESE 28 39 15 21 1016.0 1015.9 17.2
17/03:42pm 21.6 20.6 19.7 89 1.2 ESE 24 37 13 20 1015.8 1015.7 17.2
17/03:39pm 21.5 20.5 19.6 89 1.2 ESE 24 32 13 17 1015.8 1015.7 17.2
17/03:30pm 21.5 19.7 19.6 89 1.2 ESE 28 37 15 20 1015.8 1015.7 17.2
17/03:12pm 21.4 19.1 19.3 88 1.3 ESE 30 39 16 21 1015.9 1015.8 16.2
17/03:00pm 21.6 19.3 19.3 87 1.5 ESE 30 41 16 22 1016.0 1015.9 13.2
17/02:45pm 22.0 20.2 19.5 86 1.6 ESE 28 39 15 21 1015.7 1015.6 11.4
17/02:30pm 22.2 20.9 19.9 87 1.5 ESE 26 35 14 19 1015.6 1015.5 11.2
17/02:23pm 22.2 20.5 19.9 87 1.5 ESE 28 46 15 25 1015.6 1015.5 11.2
17/02:00pm 22.2 20.4 20.3 89 1.2 ESE 30 43 16 23 1015.4 1015.3 11.2
17/01:37pm 22.1 21.1 20.4 90 1.1 ESE 26 35 14 19 1015.6 1015.5 11.2
17/01:30pm 21.8 20.2 20.1 90 1.1 ESE 28 41 15 22 1015.8 1015.7 11.2
17/01:02pm 21.6 19.9 19.9 90 1.1 ESE 28 43 15 23 1016.0 1015.9 9.8
17/01:00pm 21.7 20.9 20.0 90 1.1 ESE 24 35 13 19 1016.0 1015.9 9.4
17/12:30pm 21.2 19.6 19.3 89 1.2 ESE 26 37 14 20 1016.3 1016.2 9.2
17/12:27pm 21.2 19.6 19.3 89 1.2 ESE 26 37 14 20 1016.4 1016.3 9.2
17/12:24pm 21.0 19.4 19.1 89 1.2 ESE 26 37 14 20 1016.5 1016.4 9.2
17/12:13pm 21.0 19.0 19.1 89 1.2 ESE 28 41 15 22 1016.7 1016.6 9.2
17/12:03pm 20.5 16.5 18.4 88 1.3 ESE 37 57 20 31 1016.8 1016.7 9.2
17/12:00pm 20.5 17.2 18.4 88 1.3 ESE 33 57 18 31 1016.8 1016.7 8.8
17/11:57am 21.6 19.8 19.5 88 1.3 ESE 28 52 15 28 1016.8 1016.7 8.0
17/11:49am 22.1 20.9 20.0 88 1.3 ESE 26 39 14 21 1016.8 1016.7 4.0
17/11:39am 22.1 21.3 20.0 88 1.3 SE 24 39 13 21 1016.5 1016.4 2.4
17/11:30am 21.9 21.3 19.8 88 1.3 ESE 22 39 12 21 1016.7 1016.6 2.4
17/11:00am 22.2 20.8 19.7 86 1.6 ESE 26 41 14 22 1017.1 1017.0 1.0
17/10:57am 21.9 20.0 19.3 85 1.7 ESE 28 46 15 25 1017.1 1017.0 0.8
17/10:45am 22.3 19.6 19.3 83 1.9 ESE 32 43 17 23 1017.2 1017.1 0.2
17/10:30am 22.9 20.2 19.3 80 2.3 ESE 32 44 17 24 1017.2 1017.1 0.0
17/10:00am 23.4 21.9 20.2 82 2.1 ESE 28 43 15 23 1017.4 1017.3 0.0
17/09:30am 23.1 22.3 20.8 87 1.5 ESE 26 37 14 20 1017.5 1017.4 0.0
17/09:00am 21.6 19.8 19.5 88 1.3 ESE 28 37 15 20 1017.9 1017.8 85.4
17/08:56am 21.7 20.0 19.8 89 1.2 ESE 28 35 15 19 1017.9 1017.8 85.4
17/08:30am 21.4 19.5 19.3 88 1.3 E 28 41 15 22 1017.7 1017.6 85.0
17/08:19am 21.5 19.6 19.4 88 1.3 E 28 41 15 22 1017.5 1017.4 84.4
17/08:07am 21.2 18.4 19.1 88 1.3 E 32 43 17 23 1017.3 1017.2 84.4
17/08:00am 21.2 18.7 18.9 87 1.4 E 30 39 16 21 1017.2 1017.1 84.2
17/07:44am 21.6 19.2 19.2 86 1.5 ESE 30 41 16 22 1017.0 1016.9 83.0
17/07:30am 21.8 19.6 19.5 87 1.5 ESE 30 46 16 25 1016.6 1016.5 82.6
17/07:00am 21.8 20.5 19.9 89 1.2 ESE 26 35 14 19 1015.9 1015.8 82.6
17/06:30am 21.1 18.5 19.6 91 1.0 ESE 32 44 17 24 1015.7 1015.6 82.6
17/06:28am 21.0 18.4 19.5 91 1.0 ESE 32 44 17 24 1015.7 1015.6 82.6
17/06:19am 20.8 18.1 19.3 91 0.9 ESE 32 44 17 24 1015.5 1015.4 82.6
17/06:00am 20.5 18.8 19.0 91 0.9 ESE 26 35 14 19 1015.4 1015.3 82.4
17/05:30am 20.5 18.4 19.0 91 0.9 ESE 28 41 15 22 1014.7 1014.6 77.4
17/05:09am 20.5 18.8 19.0 91 0.9 ESE 26 41 14 22 1014.8 1014.7 76.8
17/05:00am 20.5 18.8 19.0 91 0.9 ESE 26 41 14 22 1014.7 1014.6 76.8
17/04:48am 20.5 19.2 19.0 91 0.9 ESE 24 35 13 19 1014.7 1014.6 76.8
17/04:30am 20.4 17.9 18.9 91 0.9 ESE 30 41 16 22 1014.6 1014.5 76.8
17/04:00am 20.4 18.3 18.9 91 0.9 ESE 28 43 15 23 1014.5 1014.4 75.6
17/03:39am 20.5 18.8 19.0 91 0.9 ESE 26 37 14 20 1014.4 1014.3 74.4
17/03:32am 20.5 18.8 19.0 91 0.9 ESE 26 37 14 20 1014.3 1014.2 74.2
17/03:30am 20.5 19.2 19.0 91 0.9 ESE 24 33 13 18 1014.3 1014.2 74.2
17/03:29am 20.5 19.2 19.0 91 0.9 ESE 24 33 13 18 1014.3 1014.2 74.2
17/03:25am 20.4 19.0 18.9 91 0.9 ESE 24 33 13 18 1014.4 1014.3 74.2
17/03:19am 20.4 18.7 18.9 91 0.9 ESE 26 39 14 21 1014.4 1014.3 74.2
17/03:07am 20.5 19.2 19.0 91 0.9 ESE 24 33 13 18 1014.3 1014.2 74.0
17/03:06am 20.5 19.6 19.0 91 0.9 ESE 22 33 12 18 1014.3 1014.2 74.0
17/03:00am 20.5 19.2 19.0 91 0.9 ESE 24 35 13 19 1014.3 1014.2 73.8
17/02:59am 20.5 19.2 19.0 91 0.9 ESE 24 35 13 19 1014.2 1014.1 73.8
17/02:36am 20.2 18.0 18.7 91 0.9 ESE 28 46 15 25 1014.5 1014.4 73.4
17/02:30am 20.2 19.1 18.7 91 0.9 ESE 22 43 12 23 1014.6 1014.5 73.2
17/02:27am 20.4 19.4 18.9 91 0.9 ESE 22 35 12 19 1014.6 1014.5 73.2
17/02:22am 20.2 19.5 18.7 91 0.9 ESE 20 35 11 19 1014.6 1014.5 73.2
17/02:17am 20.0 18.1 18.5 91 0.9 ESE 26 41 14 22 1014.7 1014.6 73.2
17/02:11am 20.0 16.9 18.5 91 0.9 ESE 32 50 17 27 1014.8 1014.7 73.2
17/02:00am 19.9 17.6 18.4 91 0.9 ESE 28 46 15 25 1014.9 1014.8 72.2
17/01:59am 19.9 17.6 18.4 91 0.9 ESE 28 46 15 25 1014.9 1014.8 72.0
17/01:56am 20.0 18.8 18.5 91 0.9 ESE 22 46 12 25 1015.1 1015.0 71.2
17/01:55am 19.9 19.1 18.4 91 0.9 SE 20 46 11 25 1015.1 1015.0 70.8
17/01:44am 19.8 19.5 18.3 91 0.9 SSE 17 26 9 14 1015.0 1014.9 66.2
17/01:30am 19.7 19.3 18.0 90 1.0 SSE 17 26 9 14 1015.1 1015.0 65.6
17/01:00am 19.9 19.2 18.2 90 1.1 SSE 19 26 10 14 1015.4 1015.3 63.6
17/12:30am 19.7 17.9 17.8 89 1.2 SE 24 43 13 23 1015.8 1015.7 62.0
17/12:00am 19.7 17.5 17.8 89 1.2 SE 26 41 14 22 1016.2 1016.1 59.6
 
Date/Time
EST
Temp
°C
App
Temp
°C
Dew
Point
°C
Rel
Hum
%
Delta-T
°C
Wind Press
QNH
hPa
Press
MSL
hPa
Rain since
9am
mm
Dir  Spd
km/h
Gust
km/h
Spd
kts
Gust
kts
16/11:47pm 19.8 17.6 17.8 88 1.2 SE 26 43 14 23 1016.4 1016.3 58.6
16/11:44pm 19.8 17.6 17.8 88 1.2 SE 26 43 14 23 1016.5 1016.4 58.4
16/11:30pm 19.7 15.4 17.7 88 1.2 ESE 37 57 20 31 1016.6 1016.5 58.0
16/11:05pm 19.8 17.2 17.9 89 1.2 SE 28 48 15 26 1016.6 1016.5 56.2
16/11:00pm 19.8 17.2 17.9 89 1.2 SE 28 43 15 23 1016.5 1016.4 56.0
16/10:44pm 19.9 16.6 17.9 88 1.2 SE 32 50 17 27 1016.5 1016.4 55.0
16/10:37pm 19.8 16.8 17.8 88 1.2 SE 30 50 16 27 1016.7 1016.6 54.6
16/10:30pm 19.8 17.2 17.8 88 1.2 SE 28 46 15 25 1017.0 1016.9 54.6
16/10:04pm 20.1 16.8 17.9 87 1.4 SE 32 50 17 27 1017.1 1017.0 53.2
16/10:00pm 20.2 16.7 18.0 87 1.4 SE 33 50 18 27 1017.0 1016.9 53.0
16/09:58pm 20.3 16.5 18.1 87 1.4 ESE 35 50 19 27 1017.0 1016.9 52.8
16/09:30pm 20.5 17.2 18.4 88 1.3 ESE 33 46 18 25 1016.8 1016.7 52.2
16/09:03pm 20.4 17.3 18.5 89 1.2 ESE 32 54 17 29 1016.7 1016.6 51.8
16/09:00pm 20.4 17.7 18.5 89 1.2 ESE 30 43 16 23 1016.7 1016.6 51.8
16/08:43pm 20.3 17.7 18.6 90 1.1 ESE 30 46 16 25 1016.8 1016.7 51.6
16/08:30pm 20.3 17.3 18.6 90 1.1 ESE 32 46 17 25 1016.6 1016.5 51.6
16/08:05pm 20.3 17.1 18.6 90 1.1 ESE 33 52 18 28 1016.7 1016.6 50.0
16/08:00pm 20.3 16.7 18.6 90 1.1 ESE 35 48 19 26 1016.6 1016.5 49.6
16/07:53pm 20.3 17.3 18.6 90 1.1 ESE 32 44 17 24 1016.6 1016.5 49.0
16/07:41pm 20.3 17.1 18.6 90 1.1 ESE 33 46 18 25 1016.4 1016.3 48.0
16/07:30pm 20.4 16.5 18.7 90 1.1 ESE 37 57 20 31 1016.1 1016.0 47.2
16/07:08pm 20.3 17.3 18.6 90 1.1 ESE 32 50 17 27 1015.7 1015.6 45.2
16/07:00pm 20.4 16.5 18.7 90 1.1 ESE 37 50 20 27 1015.6 1015.5 44.4
16/06:55pm 20.3 16.0 18.6 90 1.1 ESE 39 63 21 34 1015.5 1015.4 44.0
16/06:37pm 20.6 17.2 18.9 90 1.1 ESE 35 57 19 31 1015.1 1015.0 42.2
16/06:35pm 20.5 16.6 18.8 90 1.1 ESE 37 57 20 31 1015.0 1014.9 42.0
16/06:30pm 20.5 16.6 18.8 90 1.1 ESE 37 50 20 27 1015.0 1014.9 41.6
16/06:06pm 20.7 16.5 19.0 90 1.1 ESE 39 56 21 30 1014.8 1014.7 39.0
16/06:01pm 20.8 17.1 19.1 90 1.1 ESE 37 56 20 30 1014.5 1014.4 38.4
16/06:00pm 20.8 17.4 19.1 90 1.1 ESE 35 46 19 25 1014.5 1014.4 38.2
16/05:30pm 20.7 18.3 19.0 90 1.1 ESE 30 43 16 23 1014.3 1014.2 36.0
16/05:18pm 21.0 18.3 19.3 90 1.1 ESE 32 43 17 23 1014.2 1014.1 35.0
16/05:17pm 21.0 18.3 19.3 90 1.1 ESE 32 43 17 23 1014.2 1014.1 34.8
16/05:10pm 21.0 18.7 19.3 90 1.1 ESE 30 46 16 25 1014.0 1013.9 34.2
16/05:05pm 21.0 19.1 19.3 90 1.1 ESE 28 46 15 25 1014.0 1013.9 34.0
16/05:00pm 21.2 19.7 19.5 90 1.1 ESE 26 37 14 20 1014.2 1014.1 33.8
16/04:52pm 21.1 20.4 19.4 90 1.1 ESE 22 37 12 20 1014.2 1014.1 33.6
16/04:33pm 20.8 20.6 19.3 91 0.9 ESE 19 32 10 17 1013.9 1013.8 33.6
16/04:30pm 20.7 20.7 19.0 90 1.1 SE 17 28 9 15 1013.9 1013.8 33.6
16/04:19pm 20.4 20.7 18.7 90 1.1 ESE 15 24 8 13 1013.9 1013.8 33.4
16/04:09pm 20.4 20.3 18.7 90 1.1 SE 17 26 9 14 1013.9 1013.8 33.0
16/04:00pm 20.3 20.1 18.6 90 1.1 SE 17 24 9 13 1013.7 1013.6 32.6
16/03:30pm 20.4 19.3 18.7 90 1.1 ESE 22 39 12 21 1013.7 1013.6 32.4
16/03:13pm 20.3 18.9 18.8 91 0.9 ESE 24 35 13 19 1013.6 1013.5 32.2
16/03:09pm 20.2 18.8 18.7 91 0.9 ESE 24 35 13 19 1013.6 1013.5 32.2
16/03:00pm 20.1 18.2 18.6 91 0.9 ESE 26 41 14 22 1013.6 1013.5 32.0
16/02:30pm 20.7 19.9 19.2 91 0.9 ESE 22 32 12 17 1013.4 1013.3 30.0
16/02:25pm 20.6 19.3 19.1 91 0.9 ESE 24 39 13 21 1013.4 1013.3 29.2
16/02:13pm 20.7 19.8 19.0 90 1.1 SE 22 39 12 21 1013.4 1013.3 27.0
16/02:03pm 21.1 20.4 19.6 91 1.0 ESE 22 35 12 19 1013.5 1013.4 25.8
16/02:00pm 21.2 20.6 19.7 91 1.0 ESE 22 35 12 19 1013.5 1013.4 25.6
16/01:51pm 21.4 20.9 19.9 91 1.0 ESE 22 35 12 19 1013.5 1013.4 24.8
16/01:36pm 21.2 21.5 19.7 91 1.0 SE 17 28 9 15 1013.5 1013.4 24.4
16/01:30pm 21.2 21.2 19.7 91 1.0 SE 19 32 10 17 1013.6 1013.5 24.4
16/01:09pm 20.6 20.7 19.1 91 0.9 SE 17 33 9 18 1014.0 1013.9 24.0
16/01:00pm 20.6 19.3 19.1 91 0.9 ESE 24 35 13 19 1014.0 1013.9 23.8
16/12:43pm 20.5 17.5 19.0 91 0.9 E 33 48 18 26 1014.1 1014.0 21.8
16/12:37pm 20.6 17.6 19.1 91 0.9 ESE 33 48 18 26 1014.2 1014.1 21.6
16/12:34pm 20.5 18.1 19.0 91 0.9 ESE 30 48 16 26 1014.2 1014.1 21.6
16/12:30pm 20.5 18.4 19.0 91 0.9 ESE 28 41 15 22 1014.3 1014.2 21.6
16/12:24pm 20.1 18.2 18.6 91 0.9 ESE 26 41 14 22 1014.3 1014.2 21.6
16/12:22pm 19.9 17.6 18.4 91 0.9 ESE 28 43 15 23 1014.3 1014.2 21.6
16/12:04pm 20.2 18.1 18.9 92 0.8 ESE 28 54 15 29 1014.4 1014.3 21.4
16/12:00pm 20.0 18.5 18.5 91 0.9 ESE 24 37 13 20 1014.4 1014.3 21.2
16/11:30am 20.6 18.6 19.1 91 0.9 ESE 28 41 15 22 1015.0 1014.9 17.2
16/11:11am 21.1 20.8 19.6 91 1.0 ESE 20 32 11 17 1015.1 1015.0 12.0
16/11:00am 21.3 22.1 19.8 91 1.0 SE 15 24 8 13 1015.1 1015.0 6.6
16/10:40am 21.4 21.8 19.9 91 1.0 ESE 17 32 9 17 1015.3 1015.2 5.6
16/10:30am 21.3 21.3 19.8 91 1.0 SE 19 28 10 15 1015.2 1015.1 5.6
16/10:21am 21.4 21.5 19.9 91 1.0 SE 19 28 10 15 1015.3 1015.2 5.6
16/10:00am 21.2 21.2 19.8 92 0.9 ESE 19 26 10 14 1015.4 1015.3 5.2
16/09:54am 21.1 21.4 19.7 92 0.9 ESE 17 26 9 14 1015.5 1015.4 4.8
16/09:47am 21.0 20.8 19.7 92 0.8 ESE 20 30 11 16 1015.5 1015.4 4.8
16/09:30am 20.7 20.3 19.4 92 0.8 ESE 20 28 11 15 1015.6 1015.5 4.6
16/09:00am 20.8 20.1 19.5 92 0.8 E 22 30 12 16 1015.6 1015.5 98.6
16/08:51am 20.7 20.9 19.4 92 0.8 SE 17 30 9 16 1015.6 1015.5 97.8
16/08:50am 20.6 21.1 19.3 92 0.8 SE 15 30 8 16 1015.6 1015.5 97.6
16/08:42am 20.5 21.4 19.2 92 0.8 SE 13 17 7 9 1015.6 1015.5 97.4
16/08:32am 20.4 21.2 19.1 92 0.8 SE 13 20 7 11 1015.6 1015.5 97.0
16/08:30am 20.4 21.2 19.1 92 0.8 SE 13 20 7 11 1015.6 1015.5 96.8
16/08:09am 20.3 21.1 19.0 92 0.8 SE 13 20 7 11 1015.3 1015.2 96.2
16/08:00am 20.2 20.2 18.9 92 0.8 ESE 17 28 9 15 1015.3 1015.2 96.2
16/07:58am 20.2 19.8 18.9 92 0.8 ESE 19 28 10 15 1015.3 1015.2 96.0
16/07:30am 20.7 20.3 19.4 92 0.8 ESE 20 35 11 19 1015.1 1015.0 95.2
16/07:26am 20.9 21.2 19.6 92 0.8 SE 17 26 9 14 1015.1 1015.0 94.4
16/07:00am 20.6 21.9 19.4 93 0.8 SE 11 19 6 10 1014.8 1014.7 94.0
16/06:30am 19.9 20.9 18.7 93 0.7 SSE 11 19 6 10 1014.5 1014.4 93.8
16/06:27am 19.9 20.9 18.7 93 0.7 SSE 11 17 6 9 1014.5 1014.4 93.8
16/06:00am 19.6 20.1 18.4 93 0.7 SSE 13 19 7 10 1014.1 1014.0 93.4
16/05:56am 19.5 20.0 18.3 93 0.7 SSE 13 20 7 11 1014.2 1014.1 92.8
16/05:30am 19.7 19.5 18.5 93 0.7 SSE 17 24 9 13 1014.1 1014.0 92.4
16/05:00am 20.0 20.3 18.8 93 0.8 SSE 15 26 8 14 1013.5 1013.4 92.2
16/04:52am 20.0 20.7 18.8 93 0.8 SSE 13 19 7 10 1013.5 1013.4 92.2
16/04:35am 19.8 19.1 18.6 93 0.7 SSE 20 33 11 18 1013.2 1013.1 92.2
16/04:30am 19.8 19.1 18.6 93 0.7 SSE 20 33 11 18 1013.1 1013.0 92.0
16/04:00am 19.4 19.1 18.2 93 0.7 S 17 26 9 14 1012.9 1012.8 92.0
16/03:39am 19.2 19.2 18.0 93 0.7 S 15 22 8 12 1012.5 1012.4 91.8
16/03:30am 19.3 18.9 18.1 93 0.7 S 17 26 9 14 1012.4 1012.3 91.8
16/03:10am 19.5 20.0 18.3 93 0.7 S 13 19 7 10 1012.8 1012.7 91.8
16/03:00am 19.4 19.8 18.2 93 0.7 S 13 19 7 10 1012.8 1012.7 91.6
16/02:43am 19.1 18.6 17.9 93 0.7 S 17 28 9 15 1012.5 1012.4 91.6
16/02:30am 19.0 18.1 17.8 93 0.7 S 19 30 10 16 1012.6 1012.5 91.6
16/02:08am 19.1 17.7 17.9 93 0.7 S 22 35 12 19 1012.8 1012.7 87.0
16/02:00am 18.9 17.8 17.7 93 0.7 S 20 33 11 18 1013.0 1012.9 86.2
16/01:52am 18.9 17.9 17.6 92 0.8 SSE 19 28 10 15 1013.1 1013.0 84.4
16/01:30am 19.0 18.1 17.7 92 0.8 SSE 19 32 10 17 1013.3 1013.2 76.6
16/01:00am 18.9 17.0 17.6 92 0.8 SSE 24 37 13 20 1013.5 1013.4 75.4
16/12:48am 18.9 17.4 17.6 92 0.8 SSE 22 41 12 22 1013.6 1013.5 74.2
16/12:42am 19.0 17.1 17.7 92 0.8 SSE 24 39 13 21 1013.6 1013.5 74.0
16/12:30am 19.1 17.3 17.8 92 0.8 SSE 24 35 13 19 1013.6 1013.5 73.8
16/12:00am 19.3 18.5 18.0 92 0.8 SSE 19 28 10 15 1014.3 1014.2 71.6
 
Date/Time
EST
Temp
°C
App
Temp
°C
Dew
Point
°C
Rel
Hum
%
Delta-T
°C
Wind Press
QNH
hPa
Press
MSL
hPa
Rain since
9am
mm
Dir  Spd
km/h
Gust
km/h
Spd
kts
Gust
kts
15/11:30pm 19.0 18.1 17.7 92 0.8 SSE 19 32 10 17 1014.6 1014.5 67.4
15/11:00pm 18.8 17.6 17.5 92 0.8 SSE 20 35 11 19 1014.7 1014.6 62.8
15/10:58pm 18.7 17.5 17.4 92 0.8 SSE 20 35 11 19 1014.7 1014.6 62.4
15/10:30pm 19.4 18.5 18.1 92 0.8 SSE 20 33 11 18 1014.7 1014.6 59.2
15/10:29pm 19.4 18.5 18.1 92 0.8 SSE 20 33 11 18 1014.7 1014.6 59.2
15/10:27pm 19.4 18.4 17.9 91 0.9 SSE 20 33 11 18 1014.7 1014.6 59.2
15/10:00pm 19.7 19.1 18.4 92 0.8 SE 19 30 10 16 1014.7 1014.6 56.2
15/09:36pm 19.5 19.5 18.0 91 0.9 SE 15 24 8 13 1014.6 1014.5 52.8
15/09:30pm 19.5 19.1 18.0 91 0.9 SSE 17 26 9 14 1014.6 1014.5 51.8
15/09:00pm 19.4 18.9 17.9 91 0.9 SE 17 28 9 15 1014.4 1014.3 49.4
15/08:48pm 19.3 18.8 17.8 91 0.9 SE 17 26 9 14 1014.5 1014.4 47.2
15/08:30pm 19.8 19.9 18.3 91 0.9 SE 15 24 8 13 1014.6 1014.5 44.0
15/08:02pm 19.8 19.8 18.1 90 1.1 SE 15 26 8 14 1014.5 1014.4 34.2
15/08:00pm 20.0 19.7 18.3 90 1.1 SE 17 30 9 16 1014.5 1014.4 33.2
15/07:50pm 20.1 20.2 18.4 90 1.1 SE 15 28 8 15 1014.5 1014.4 30.8
15/07:31pm 20.1 21.0 18.4 90 1.1 SSE 11 19 6 10 1014.2 1014.1 29.4
15/07:30pm 20.1 21.0 18.4 90 1.1 SSE 11 19 6 10 1014.2 1014.1 29.4
15/07:05pm 20.0 20.9 18.3 90 1.1 SSE 11 15 6 8 1014.0 1013.9 28.8

Other Formats:

Comma delimited format used in spreadsheet applications
http://www.bom.gov.au/fwo/IDQ60801/IDQ60801.95565.axf

JavaScript Object Notation format (JSON) in row-major order
http://www.bom.gov.au/fwo/IDQ60801/IDQ60801.95565.json